Time;durP1;ratioP1;P1;durP2;ratioP2;P2;SDS_P1;SDS_P2;PMS_P1;PMS_P2;Temp;Humidity;BMP_temperature;BMP_pressure;BME280_temperature;BME280_humidity;BME280_pressure;Samples;Min_cycle;Max_cycle;Signal;HPM_P1;HPM_P2
2022/07/23 06:36:25;;;;;;;2.70;0.80;;;19.00;99.90;;;;;;6016419;23;20014;-79
2022/07/23 06:38:50;;;;;;;4.97;0.90;;;19.10;99.90;;;;;;5960491;23;20018;-73
2022/07/23 06:41:16;;;;;;;3.10;0.70;;;19.10;99.90;;;;;;6109951;23;20371;-71
2022/07/23 07:21:04;;;;;;;5.90;0.80;;;18.80;99.90;;;;;;6213076;22;20024;-73
2022/07/23 07:50:15;;;;;;;48.25;4.80;;;18.50;99.90;;;;;;6066948;23;20050;-74
2022/07/23 07:56:20;;;;;;;3.92;0.80;;;18.50;99.90;;;;;;6066877;23;20013;-68
2022/07/23 07:58:46;;;;;;;6.82;1.05;;;18.30;99.90;;;;;;6043222;23;20011;-68
2022/07/23 08:01:12;;;;;;;3.67;0.70;;;18.30;99.90;;;;;;6119857;23;20051;-70
2022/07/23 08:04:18;;;;;;;3.63;0.90;;;18.20;99.90;;;;;;6186951;23;20013;-71
2022/07/23 08:46:12;;;;;;;3.88;0.70;;;18.50;99.90;;;;;;6206523;23;20048;-84
2022/07/23 08:48:38;;;;;;;1.23;0.80;;;18.80;99.90;;;;;;6164404;23;20028;-81
2022/07/23 08:51:05;;;;;;;2.22;0.90;;;19.00;99.90;;;;;;6164521;23;20020;-81
2022/07/23 08:53:33;;;;;;;1.38;0.90;;;19.20;99.90;;;;;;6165151;23;20335;-82
2022/07/23 08:56:03;;;;;;;1.58;0.90;;;19.40;99.90;;;;;;6165251;23;20439;-81
2022/07/23 08:58:30;;;;;;;4.07;1.13;;;19.60;99.90;;;;;;6165437;23;20439;-81
2022/07/23 09:00:57;;;;;;;3.83;0.80;;;19.90;99.90;;;;;;6165445;23;20040;-79
2022/07/23 09:03:33;;;;;;;4.88;0.75;;;20.30;99.90;;;;;;6165008;23;20099;-80
2022/07/23 09:06:01;;;;;;;3.40;0.80;;;20.50;99.90;;;;;;6164436;23;20021;-80
2022/07/23 09:08:37;;;;;;;1.70;0.70;;;20.40;99.90;;;;;;6164732;23;20020;-79
2022/07/23 09:11:05;;;;;;;5.32;1.00;;;20.30;99.90;;;;;;6164996;23;20017;-82
2022/07/23 09:13:34;;;;;;;6.10;0.98;;;20.10;99.90;;;;;;6164479;23;20436;-80
2022/07/23 09:16:03;;;;;;;31.63;3.28;;;20.10;99.90;;;;;;6165001;23;20316;-80
2022/07/23 09:18:33;;;;;;;4.32;1.25;;;20.10;99.90;;;;;;6165067;23;20020;-81
2022/07/23 10:17:25;;;;;;;;;;;;;;;;;;;;;
2022/07/23 10:20:16;;;;;;;2.72;0.60;;;21.70;95.90;;;;;;6187951;23;20023;-81
2022/07/23 10:23:10;;;;;;;3.53;0.77;;;21.50;95.70;;;;;;6163479;23;20048;-79
2022/07/23 10:25:55;;;;;;;3.40;0.82;;;21.50;95.40;;;;;;6187610;23;20012;-81
2022/07/23 10:32:51;;;;;;;3.10;0.68;;;21.80;96.50;;;;;;6213890;23;20008;-83
2022/07/23 10:35:29;;;;;;;2.55;0.70;;;22.00;96.20;;;;;;6165253;23;20023;-80
2022/07/23 10:38:10;;;;;;;4.13;0.95;;;22.20;95.70;;;;;;6163027;23;20020;-78
2022/07/23 10:41:03;;;;;;;3.28;0.80;;;22.30;95.00;;;;;;6162652;23;20013;-80
2022/07/23 10:43:32;;;;;;;2.20;0.65;;;22.30;93.60;;;;;;6163707;23;20024;-80
2022/07/23 10:46:39;;;;;;;1.92;0.90;;;22.40;93.90;;;;;;6161591;23;20023;-86
2022/07/23 10:53:22;;;;;;;;;;;;;;;;;;;;;
2022/07/23 10:55:52;;;;;;;4.43;1.00;;;22.30;93.50;;;;;;6191087;23;20012;-78
2022/07/23 11:07:11;;;;;;;;;;;;;;;;;;;;;
2022/07/23 11:39:31;;;;;;;15.38;1.02;;;23.80;92.40;;;;;;6028648;23;20009;-77
2022/07/23 11:41:58;;;;;;;2.28;0.60;;;23.70;92.80;;;;;;6149666;23;20009;-77
2022/07/23 11:44:31;;;;;;;7.28;0.85;;;23.80;92.90;;;;;;6136278;23;20009;-74
2022/07/23 11:47:02;;;;;;;8.18;0.98;;;23.90;91.90;;;;;;6187315;23;20328;-76
2022/07/23 11:49:29;;;;;;;7.43;0.85;;;23.70;91.90;;;;;;6136632;23;20095;-76
2022/07/23 11:52:07;;;;;;;8.38;0.90;;;23.50;92.00;;;;;;6160902;23;20020;-74
2022/07/23 11:54:35;;;;;;;2.78;0.80;;;23.60;92.30;;;;;;6136391;23;20013;-75
2022/07/23 11:57:02;;;;;;;11.50;0.85;;;23.60;91.80;;;;;;6186883;23;20013;-77
2022/07/23 11:59:31;;;;;;;4.53;0.70;;;23.30;92.10;;;;;;6160582;23;20019;-77
2022/07/23 12:02:05;;;;;;;2.00;0.80;;;23.40;92.70;;;;;;6159759;23;20016;-76
2022/07/23 12:04:46;;;;;;;9.15;1.13;;;23.50;93.00;;;;;;6136393;23;20009;-75
2022/07/23 12:07:32;;;;;;;41.75;2.88;;;23.40;92.70;;;;;;6160744;23;20009;-77
2022/07/23 12:10:19;;;;;;;9.90;1.48;;;23.40;93.30;;;;;;6136594;23;20395;-75
2022/07/23 12:12:56;;;;;;;5.40;0.80;;;23.60;93.10;;;;;;6134190;23;20020;-74
2022/07/23 12:15:27;;;;;;;5.82;0.88;;;23.80;92.20;;;;;;6134952;23;20013;-72
2022/07/23 12:17:56;;;;;;;6.25;0.80;;;23.50;92.20;;;;;;6185589;23;20427;-71
2022/07/23 12:20:28;;;;;;;3.05;0.70;;;23.30;92.30;;;;;;6187624;23;20017;-72
2022/07/23 12:23:28;;;;;;;7.10;1.23;;;23.20;92.00;;;;;;6163874;23;20009;-75
2022/07/23 12:26:08;;;;;;;3.67;0.70;;;23.30;92.70;;;;;;6185773;23;20092;-75
2022/07/23 12:28:37;;;;;;;4.90;0.77;;;23.20;92.10;;;;;;6160862;23;20009;-73
2022/07/23 12:31:03;;;;;;;2.90;0.80;;;23.00;92.90;;;;;;6185324;23;20172;-76
2022/07/23 12:33:50;;;;;;;;;;;23.20;93.40;;;;;;6160337;23;20020;-78
2022/07/23 12:43:35;;;;;;;3.15;0.63;;;23.80;92.90;;;;;;6185128;23;20092;-76
2022/07/23 12:46:24;;;;;;;9.97;1.03;;;24.00;93.10;;;;;;6160029;23;20005;-75
2022/07/23 12:49:16;;;;;;;7.28;1.08;;;24.10;92.60;;;;;;6160031;23;20064;-77
2022/07/23 12:52:17;;;;;;;4.53;0.95;;;24.20;92.70;;;;;;6152416;23;20005;-77
2022/07/23 12:54:51;;;;;;;6.63;0.90;;;24.30;92.90;;;;;;6184524;23;20013;-78
2022/07/23 13:00:17;;;;;;;8.68;1.20;;;23.90;92.20;;;;;;6184654;23;20013;-76
2022/07/23 13:02:59;;;;;;;10.77;1.30;;;23.90;92.40;;;;;;6136079;23;20013;-78
2022/07/23 13:05:35;;;;;;;4.75;1.10;;;24.10;92.50;;;;;;6159620;23;20012;-75
2022/07/23 13:08:02;;;;;;;8.75;1.33;;;24.10;92.70;;;;;;6186382;23;20008;-76
2022/07/23 13:10:28;;;;;;;3.25;1.15;;;24.10;93.10;;;;;;6184786;23;20432;-77
2022/07/23 13:12:53;;;;;;;;;;;24.10;93.00;;;;;;6160341;23;20092;-75
2022/07/23 13:15:19;;;;;;;2.97;1.17;;;24.20;92.60;;;;;;6163787;23;20299;-76
2022/07/23 13:29:24;;;;;;;1.92;0.90;;;23.90;90.90;;;;;;6215792;23;20474;-72
2022/07/23 13:32:08;;;;;;;3.58;1.10;;;24.30;92.10;;;;;;6164858;23;20009;-73
2022/07/23 13:36:03;;;;;;;;;;;;;;;;;;;;;
2022/07/23 13:39:36;;;;;;;12.63;1.30;;;24.80;91.40;;;;;;6215633;23;20437;-75
2022/07/23 13:43:06;;;;;;;;;;;;;;;;;;;;;
2022/07/23 13:45:53;;;;;;;12.10;1.75;;;24.80;90.50;;;;;;6189508;23;20012;-74
2022/07/23 13:48:24;;;;;;;6.25;0.90;;;25.20;90.80;;;;;;6216320;23;20005;-77
2022/07/23 13:50:54;;;;;;;4.50;1.13;;;25.20;89.60;;;;;;6164990;23;20004;-75
2022/07/23 13:53:28;;;;;;;10.52;1.15;;;25.10;90.50;;;;;;6164862;23;20020;-76
2022/07/23 14:13:34;;;;;;;3.50;1.10;;;24.70;89.10;;;;;;6212137;23;20043;-79
2022/07/23 14:16:04;;;;;;;4.82;0.98;;;24.90;90.70;;;;;;6140569;23;20020;-78
2022/07/23 14:18:36;;;;;;;2.55;1.00;;;25.00;90.80;;;;;;6142399;23;20104;-78
2022/07/23 14:21:14;;;;;;;4.15;1.20;;;25.20;90.10;;;;;;6191057;23;20023;-83
2022/07/23 14:23:45;;;;;;;4.60;1.13;;;25.20;89.50;;;;;;6141089;23;20031;-82
2022/07/23 14:26:11;;;;;;;16.40;1.10;;;25.00;88.60;;;;;;6164746;23;20108;-81
2022/07/23 14:28:42;;;;;;;9.88;1.33;;;25.20;90.20;;;;;;6164699;23;20428;-78
2022/07/23 14:31:08;;;;;;;5.53;1.05;;;25.30;89.50;;;;;;6165100;23;20052;-82
2022/07/23 14:34:11;;;;;;;5.57;1.20;;;25.40;89.20;;;;;;6164422;23;20015;-74
2022/07/23 14:39:58;;;;;;;15.95;1.45;;;25.60;87.70;;;;;;6191533;23;20059;-72
2022/07/23 14:42:32;;;;;;;16.33;1.40;;;25.60;86.80;;;;;;6190952;23;20013;-73
2022/07/23 14:45:17;;;;;;;3.03;1.08;;;25.50;84.90;;;;;;6217779;23;20054;-73
2022/07/23 14:47:58;;;;;;;12.32;2.17;;;25.60;84.50;;;;;;6167318;23;20066;-73
2022/07/23 14:50:55;;;;;;;8.40;1.43;;;25.40;85.00;;;;;;6190759;23;20430;-72
2022/07/23 14:53:26;;;;;;;12.38;1.38;;;25.20;85.20;;;;;;6190712;23;20047;-73
2022/07/23 14:55:52;;;;;;;3.38;1.17;;;25.30;87.20;;;;;;6166170;23;20013;-73
2022/07/23 14:58:30;;;;;;;7.20;1.40;;;25.20;86.40;;;;;;6141360;23;20009;-74
2022/07/23 15:00:55;;;;;;;6.80;1.10;;;25.20;87.30;;;;;;6166098;23;20009;-77
2022/07/23 15:03:42;;;;;;;4.30;1.10;;;25.40;87.90;;;;;;6190748;23;20008;-81
2022/07/23 15:06:23;;;;;;;5.60;0.93;;;25.50;86.80;;;;;;6163605;23;20013;-76
2022/07/23 15:12:06;;;;;;;4.63;1.20;;;26.30;85.60;;;;;;6169316;23;20132;-75
2022/07/23 15:14:32;;;;;;;4.97;2.03;;;26.80;85.90;;;;;;6158962;23;20037;-80
2022/07/23 15:17:54;;;;;;;8.30;2.45;;;26.90;84.60;;;;;;6184651;23;20020;-78
2022/07/23 15:20:30;;;;;;;43.60;39.13;;;27.30;82.00;;;;;;6159604;23;20009;-81
2022/07/23 15:22:57;;;;;;;67.28;61.58;;;27.70;81.10;;;;;;6135180;23;20056;-82
2022/07/23 15:25:24;;;;;;;29.85;27.30;;;28.20;77.50;;;;;;6159458;23;20092;-77
2022/07/23 15:28:30;;;;;;;12.07;9.98;;;28.60;76.10;;;;;;6135028;23;20009;-77
2022/07/23 15:30:58;;;;;;;24.55;22.15;;;28.60;69.30;;;;;;6159101;23;20431;-80
2022/07/23 15:33:24;;;;;;;20.63;18.67;;;29.10;71.90;;;;;;6134646;23;20126;-78
2022/07/23 15:35:52;;;;;;;76.78;68.53;;;29.50;70.30;;;;;;6134764;23;20073;-80
2022/07/23 15:38:27;;;;;;;8.00;3.53;;;29.80;67.20;;;;;;6136005;23;20061;-77
2022/07/23 15:40:57;;;;;;;5.80;1.33;;;30.10;68.00;;;;;;6134736;23;20005;-77
2022/07/23 15:43:24;;;;;;;11.23;3.67;;;29.80;66.60;;;;;;6134781;23;20075;-77
2022/07/23 15:45:50;;;;;;;22.27;15.25;;;29.60;66.10;;;;;;6139820;23;20498;-76
2022/07/23 15:48:17;;;;;;;4.68;1.75;;;29.80;66.30;;;;;;6160995;23;20009;-81
2022/07/23 15:50:43;;;;;;;3.65;1.60;;;29.50;67.20;;;;;;6160911;23;20017;-78
2022/07/23 15:53:08;;;;;;;15.30;7.05;;;29.60;66.50;;;;;;6160837;23;20020;-78
2022/07/23 15:55:35;;;;;;;11.02;4.68;;;29.30;66.70;;;;;;6160327;23;20309;-80
2022/07/23 15:58:00;;;;;;;8.55;4.40;;;29.00;68.30;;;;;;6160878;23;20072;-78
2022/07/23 16:00:26;;;;;;;4.28;1.40;;;28.90;67.80;;;;;;6160747;23;20021;-79
2022/07/23 16:02:52;;;;;;;4.40;1.20;;;28.90;66.60;;;;;;6185678;23;20028;-78
2022/07/23 16:05:18;;;;;;;19.52;4.25;;;28.70;65.50;;;;;;6185847;23;20112;-77
2022/07/23 16:07:52;;;;;;;9.90;1.88;;;29.20;65.90;;;;;;6160609;23;20100;-79
2022/07/23 16:10:26;;;;;;;13.13;3.80;;;29.30;66.10;;;;;;6163919;23;20091;-78
2022/07/23 16:12:52;;;;;;;38.92;2.75;;;29.50;64.90;;;;;;6164265;23;20013;-80
2022/07/23 16:15:17;;;;;;;23.45;2.15;;;29.70;64.00;;;;;;6160554;23;20364;-79
2022/07/23 16:17:43;;;;;;;6.88;2.08;;;29.60;64.00;;;;;;6160099;23;20013;-81
2022/07/23 16:20:10;;;;;;;7.22;1.70;;;29.50;63.40;;;;;;6160633;23;20037;-81
2022/07/23 16:22:35;;;;;;;3.42;1.27;;;29.50;62.90;;;;;;6160721;23;20017;-78
2022/07/23 16:25:03;;;;;;;12.75;2.22;;;29.50;63.00;;;;;;6185581;23;20009;-80
2022/07/23 16:27:32;;;;;;;14.35;2.25;;;29.40;61.00;;;;;;6160110;23;20326;-79
2022/07/23 16:29:58;;;;;;;17.08;5.72;;;29.40;60.50;;;;;;6160185;23;20297;-76
2022/07/23 16:32:23;;;;;;;17.65;11.15;;;29.00;60.80;;;;;;6160373;23;20020;-77
2022/07/23 16:34:49;;;;;;;10.77;5.20;;;29.00;62.20;;;;;;6184710;23;20353;-77
2022/07/23 16:37:18;;;;;;;4.38;1.98;;;29.00;61.90;;;;;;6160472;23;20113;-78
2022/07/23 16:39:43;;;;;;;10.32;5.90;;;29.00;60.50;;;;;;6160178;23;20013;-78
2022/07/23 16:42:09;;;;;;;4.45;2.10;;;28.90;60.70;;;;;;6159587;23;20428;-77
2022/07/23 16:44:35;;;;;;;6.43;1.77;;;28.90;60.60;;;;;;6185000;23;20060;-77
2022/07/23 16:47:01;;;;;;;11.75;1.38;;;28.90;61.10;;;;;;6135222;23;20367;-81
2022/07/23 16:49:27;;;;;;;3.30;1.00;;;28.70;61.20;;;;;;6185341;23;20027;-77
2022/07/23 16:51:53;;;;;;;10.43;3.65;;;28.30;61.20;;;;;;6160552;23;20013;-76
2022/07/23 16:54:19;;;;;;;1.95;1.23;;;27.80;61.60;;;;;;6160136;23;20009;-78
2022/07/23 16:56:46;;;;;;;3.05;1.40;;;27.20;62.30;;;;;;6159047;23;20044;-77
2022/07/23 16:59:12;;;;;;;2.97;1.25;;;26.60;62.20;;;;;;6160089;23;20430;-76
2022/07/23 17:01:38;;;;;;;3.53;1.35;;;25.90;64.60;;;;;;6185279;23;20009;-75
2022/07/23 17:04:04;;;;;;;6.50;1.30;;;25.60;65.00;;;;;;6160064;23;20370;-78
2022/07/23 17:06:29;;;;;;;3.63;1.15;;;25.10;67.00;;;;;;6160204;23;20048;-78
2022/07/23 17:08:55;;;;;;;5.13;1.67;;;24.70;67.10;;;;;;6159813;23;20328;-73
2022/07/23 17:11:21;;;;;;;2.38;0.85;;;24.50;68.10;;;;;;6186546;23;20118;-77
2022/07/23 17:13:47;;;;;;;3.17;0.95;;;24.10;68.70;;;;;;6161348;23;20013;-74
2022/07/23 17:16:15;;;;;;;3.28;1.33;;;23.90;69.30;;;;;;6189583;23;20054;-71
2022/07/23 17:18:44;;;;;;;6.28;1.27;;;23.70;70.70;;;;;;6215541;23;20136;-72
2022/07/23 17:21:10;;;;;;;2.92;1.23;;;23.50;72.00;;;;;;6164989;23;20117;-74
2022/07/23 17:43:30;;;;;;;;;;;;;;;;;;;;;
2022/07/23 17:59:51;;;;;;;11.57;6.25;;;21.70;90.60;;;;;;6164878;23;20084;-73
2022/07/23 18:02:19;;;;;;;3.92;1.40;;;21.60;90.70;;;;;;6222253;23;20319;-74
2022/07/23 18:04:55;;;;;;;3.75;1.75;;;21.60;91.10;;;;;;6173921;23;20443;-72
2022/07/23 18:07:29;;;;;;;4.43;1.80;;;21.50;91.50;;;;;;6200694;23;20017;-75
2022/07/23 18:09:55;;;;;;;8.80;3.78;;;21.50;91.90;;;;;;6166566;23;20015;-73
2022/07/23 18:12:21;;;;;;;5.93;1.60;;;21.30;93.00;;;;;;6142903;23;20059;-74
2022/07/23 18:14:48;;;;;;;;;;;21.20;92.30;;;;;;6217238;23;20079;-74
2022/07/23 18:17:14;;;;;;;6.50;1.35;;;21.10;94.00;;;;;;6163944;23;19907;-74
2022/07/23 18:19:44;;;;;;;;;;;21.10;93.40;;;;;;6189311;23;20020;-73
2022/07/23 18:22:24;;;;;;;7.03;1.40;;;21.00;94.60;;;;;;6166244;23;20329;-74
2022/07/23 18:24:53;;;;;;;4.93;1.52;;;20.90;94.30;;;;;;6189180;23;20009;-72
2022/07/23 18:27:21;;;;;;;3.38;1.70;;;20.90;94.00;;;;;;6189362;23;20015;-73
2022/07/23 18:29:55;;;;;;;3.80;1.42;;;20.80;95.10;;;;;;6164594;23;20009;-74
2022/07/23 18:32:23;;;;;;;4.35;1.48;;;20.80;96.40;;;;;;6189502;23;20000;-74
2022/07/23 18:34:49;;;;;;;6.50;1.60;;;20.60;96.80;;;;;;6140514;23;20009;-74
2022/07/23 18:37:22;;;;;;;;;;;20.50;96.90;;;;;;6189861;23;20055;-73
2022/07/23 18:39:49;;;;;;;6.22;1.50;;;20.50;97.80;;;;;;6141742;23;19908;-73
2022/07/23 18:42:15;;;;;;;5.72;1.60;;;20.50;97.30;;;;;;6184229;23;20490;-75
2022/07/23 18:44:41;;;;;;;4.60;2.03;;;20.40;97.70;;;;;;6159489;23;20052;-74
2022/07/23 18:47:06;;;;;;;5.72;1.50;;;20.30;98.30;;;;;;6159276;23;20071;-73
2022/07/23 18:49:32;;;;;;;;;;;20.20;98.80;;;;;;6159809;23;20020;-75
2022/07/23 18:52:04;;;;;;;3.28;1.73;;;20.10;99.90;;;;;;6183767;23;19908;-73
2022/07/23 18:54:33;;;;;;;5.78;1.40;;;20.00;99.90;;;;;;6159186;23;20301;-74
2022/07/23 18:56:59;;;;;;;6.18;1.35;;;20.00;99.40;;;;;;6159120;23;20009;-74
2022/07/23 18:59:31;;;;;;;9.07;2.25;;;20.00;99.40;;;;;;6158640;23;20067;-74
2022/07/23 19:01:57;;;;;;;5.38;1.88;;;19.80;99.90;;;;;;6184453;23;20430;-75
2022/07/23 19:04:23;;;;;;;7.15;1.63;;;19.60;99.90;;;;;;6159906;23;20017;-74
2022/07/23 19:06:49;;;;;;;9.38;3.03;;;19.60;99.90;;;;;;6158979;23;20096;-74
2022/07/23 19:09:14;;;;;;;5.20;1.75;;;19.50;99.90;;;;;;6158852;23;20013;-74
2022/07/23 19:11:41;;;;;;;6.22;1.80;;;19.40;99.90;;;;;;6157234;23;20327;-74
2022/07/23 19:14:08;;;;;;;9.50;1.83;;;19.30;99.90;;;;;;6159648;23;20376;-74
2022/07/23 19:16:34;;;;;;;6.40;1.70;;;19.20;99.90;;;;;;6183812;23;20356;-74
2022/07/23 19:19:00;;;;;;;6.43;1.88;;;19.10;99.90;;;;;;6158580;23;20021;-74
2022/07/23 19:21:29;;;;;;;7.03;1.88;;;19.00;99.90;;;;;;6160796;23;20028;-75
2022/07/23 19:23:55;;;;;;;3.75;1.65;;;19.00;99.90;;;;;;6161013;23;20016;-75
2022/07/23 19:26:21;;;;;;;8.50;2.10;;;18.80;99.90;;;;;;6161046;23;20020;-73
2022/07/23 19:28:47;;;;;;;5.63;2.38;;;18.60;99.90;;;;;;6161339;23;20478;-73
2022/07/23 19:31:18;;;;;;;6.43;2.20;;;18.50;99.90;;;;;;6161084;23;20020;-75
2022/07/23 19:33:45;;;;;;;7.25;2.38;;;18.40;99.90;;;;;;6160659;23;20040;-73
2022/07/23 19:40:20;;;;;;;7.68;2.20;;;18.20;99.90;;;;;;6185893;23;20328;-73
2022/07/23 19:42:58;;;;;;;8.13;2.10;;;18.20;99.90;;;;;;6123767;23;20021;-71
2022/07/23 19:46:30;;;;;;;5.57;2.40;;;18.10;99.90;;;;;;6129029;23;20422;-72
2022/07/23 19:50:16;;;;;;;5.57;2.20;;;18.00;99.90;;;;;;6080639;23;20079;-72
2022/07/23 19:53:26;;;;;;;12.82;2.63;;;17.90;99.90;;;;;;5942426;24;20108;-75
2022/07/23 19:56:20;;;;;;;7.97;2.40;;;17.90;99.90;;;;;;5925360;24;20017;-79
2022/07/23 19:58:49;;;;;;;5.95;2.25;;;17.80;99.90;;;;;;6012349;23;20357;-78
2022/07/23 20:01:16;;;;;;;5.95;2.35;;;17.80;99.90;;;;;;6018807;23;20093;-74
2022/07/23 20:03:51;;;;;;;5.43;2.00;;;17.80;99.90;;;;;;6107011;23;20072;-81
2022/07/23 20:07:18;;;;;;;;;;;;;;;;;;;;;
2022/07/23 20:10:24;;;;;;;4.43;2.13;;;17.70;99.90;;;;;;6038045;23;20019;-82
2022/07/23 20:21:15;;;;;;;5.72;2.42;;;17.70;99.90;;;;;;6048147;23;20383;-77
2022/07/23 20:24:20;;;;;;;5.78;2.47;;;17.70;99.90;;;;;;5881337;24;20024;-80
2022/07/23 20:27:17;;;;;;;12.43;3.22;;;17.60;99.90;;;;;;6009687;23;20036;-84
2022/07/23 20:30:08;;;;;;;7.40;2.50;;;17.60;99.90;;;;;;5965805;23;20023;-81
2022/07/23 20:36:06;;;;;;;5.38;2.33;;;17.60;99.90;;;;;;6009379;23;20103;-80
2022/07/23 20:38:35;;;;;;;5.72;2.58;;;17.60;99.90;;;;;;5963256;23;20008;-78
2022/07/23 20:41:04;;;;;;;4.15;2.60;;;17.50;99.90;;;;;;6089921;23;20056;-78
2022/07/23 20:43:42;;;;;;;7.28;2.65;;;17.60;99.90;;;;;;6104610;23;20013;-82
2022/07/23 20:54:09;;;;;;;5.15;2.90;;;17.50;99.90;;;;;;6107049;23;20020;-88
2022/07/23 21:00:12;;;;;;;4.30;2.70;;;17.50;99.90;;;;;;6185486;23;20012;-80
2022/07/23 21:02:42;;;;;;;3.75;2.90;;;17.50;99.90;;;;;;6133147;23;20017;-81
2022/07/23 21:05:20;;;;;;;5.30;3.08;;;17.50;99.90;;;;;;6135699;23;20092;-82
2022/07/23 21:07:46;;;;;;;6.93;2.78;;;17.50;99.90;;;;;;6110783;23;20071;-79
2022/07/23 21:10:27;;;;;;;;;;;17.40;99.90;;;;;;6134501;23;20013;-83
2022/07/23 21:12:55;;;;;;;5.22;3.03;;;17.40;99.90;;;;;;6185045;23;19987;-73
2022/07/23 21:15:21;;;;;;;11.68;3.22;;;17.40;99.90;;;;;;6159351;23;20013;-79
2022/07/23 21:17:55;;;;;;;11.07;3.30;;;17.40;99.90;;;;;;6134490;23;20012;-76
2022/07/23 21:23:56;;;;;;;8.52;3.13;;;17.40;99.90;;;;;;6158425;23;20059;-76
2022/07/23 21:27:16;;;;;;;6.53;3.30;;;17.30;99.90;;;;;;6122697;23;20021;-74
2022/07/23 21:29:56;;;;;;;6.78;3.67;;;17.30;99.90;;;;;;6119708;23;20333;-78
2022/07/23 21:32:23;;;;;;;5.70;3.17;;;17.20;99.90;;;;;;6098144;23;20025;-78
2022/07/23 21:34:51;;;;;;;14.48;4.38;;;17.20;99.90;;;;;;6122447;23;20368;-78
2022/07/23 21:38:00;;;;;;;8.60;4.18;;;17.10;99.90;;;;;;6075076;23;20111;-81
2022/07/23 21:40:26;;;;;;;8.20;4.13;;;17.00;99.90;;;;;;6099674;23;20052;-75
2022/07/23 21:43:34;;;;;;;10.63;3.40;;;17.10;99.90;;;;;;6075323;23;20061;-82
2022/07/23 21:50:53;;;;;;;8.25;4.38;;;17.00;99.90;;;;;;6153946;23;20004;-79
2022/07/23 21:54:08;;;;;;;10.73;4.15;;;17.00;99.90;;;;;;6128729;23;20049;-79
2022/07/23 21:56:34;;;;;;;9.60;5.10;;;17.00;99.90;;;;;;6109895;23;20005;-79
2022/07/23 21:58:59;;;;;;;11.13;4.45;;;17.00;99.90;;;;;;6184521;23;20420;-75
2022/07/23 22:01:25;;;;;;;8.27;4.22;;;16.90;99.90;;;;;;6159644;23;20009;-72
2022/07/23 22:03:54;;;;;;;6.82;4.25;;;16.90;99.90;;;;;;6163762;23;20420;-79
2022/07/23 22:06:20;;;;;;;6.28;4.57;;;17.00;99.90;;;;;;6182870;23;20009;-78
2022/07/23 22:08:45;;;;;;;8.18;4.15;;;16.90;99.90;;;;;;6182870;23;20056;-76
2022/07/23 22:11:11;;;;;;;6.65;4.53;;;16.90;99.90;;;;;;6158269;23;20009;-76
2022/07/23 22:13:55;;;;;;;6.45;4.35;;;16.90;99.90;;;;;;6158062;23;20477;-82
2022/07/23 22:16:21;;;;;;;6.13;4.07;;;16.90;99.90;;;;;;6157790;23;20335;-70
2022/07/23 22:18:53;;;;;;;6.78;4.20;;;17.00;99.90;;;;;;6158429;23;20048;-77
2022/07/23 22:21:18;;;;;;;8.55;4.30;;;16.90;99.90;;;;;;6132758;23;20013;-77
2022/07/23 22:23:44;;;;;;;10.20;4.53;;;16.90;99.90;;;;;;6157593;23;20013;-76
2022/07/23 22:26:11;;;;;;;7.28;4.50;;;16.80;99.90;;;;;;6182156;23;20051;-76
2022/07/23 22:28:37;;;;;;;12.45;5.03;;;17.00;99.90;;;;;;6182697;23;20017;-75
2022/07/23 22:31:02;;;;;;;6.95;4.45;;;16.90;99.90;;;;;;6159499;23;20301;-76
2022/07/23 22:33:28;;;;;;;7.90;4.38;;;16.80;99.90;;;;;;6159500;23;20088;-75
2022/07/23 22:35:54;;;;;;;9.27;5.55;;;16.70;99.90;;;;;;6184591;23;20493;-78
2022/07/23 22:38:19;;;;;;;7.85;4.45;;;16.70;99.90;;;;;;6159308;23;20009;-76
2022/07/23 22:40:45;;;;;;;7.90;4.88;;;16.60;99.90;;;;;;6184654;23;20013;-75
2022/07/23 22:43:11;;;;;;;13.18;4.82;;;16.60;99.90;;;;;;6134711;23;20388;-76
2022/07/23 22:45:37;;;;;;;8.63;4.90;;;16.60;99.90;;;;;;6183939;23;20031;-77
2022/07/23 22:48:03;;;;;;;5.28;4.25;;;16.60;99.90;;;;;;6159690;23;20013;-77
2022/07/23 22:50:28;;;;;;;9.68;4.68;;;16.50;99.90;;;;;;6184477;23;20013;-77
2022/07/23 22:52:54;;;;;;;8.77;4.50;;;16.60;99.90;;;;;;6159627;23;20012;-77
2022/07/23 22:55:20;;;;;;;5.93;4.50;;;16.60;99.90;;;;;;6184501;23;20093;-75
2022/07/23 22:57:45;;;;;;;9.63;4.55;;;16.50;99.90;;;;;;6186031;23;20392;-77
2022/07/23 23:00:12;;;;;;;9.55;5.10;;;16.50;99.90;;;;;;6186460;23;20049;-77
2022/07/23 23:02:38;;;;;;;10.25;5.20;;;16.40;99.90;;;;;;6185966;23;20367;-76
2022/07/23 23:05:04;;;;;;;8.45;5.10;;;16.40;99.90;;;;;;6161352;23;20017;-75
2022/07/23 23:07:29;;;;;;;8.57;4.65;;;16.40;99.90;;;;;;6186091;23;20017;-75
2022/07/23 23:09:55;;;;;;;11.25;5.18;;;16.30;99.90;;;;;;6136570;23;20024;-76
2022/07/23 23:12:21;;;;;;;7.38;5.10;;;16.20;99.90;;;;;;6185241;23;20067;-78
2022/07/23 23:14:47;;;;;;;12.98;5.75;;;16.30;99.90;;;;;;6184935;23;20013;-76
2022/07/23 23:17:12;;;;;;;6.43;5.22;;;16.10;99.90;;;;;;6159925;23;20005;-76
2022/07/23 23:19:38;;;;;;;7.82;4.85;;;16.20;99.90;;;;;;6186076;23;20384;-76
2022/07/23 23:22:04;;;;;;;8.32;5.88;;;16.10;99.90;;;;;;6136881;23;20016;-75
2022/07/23 23:24:30;;;;;;;6.70;5.15;;;16.20;99.90;;;;;;6186130;23;20021;-75
2022/07/23 23:26:55;;;;;;;8.57;5.63;;;16.20;99.90;;;;;;6185891;23;20106;-76
2022/07/23 23:29:21;;;;;;;9.80;5.55;;;16.00;99.90;;;;;;6159576;23;20087;-75
2022/07/23 23:31:47;;;;;;;7.07;5.00;;;16.10;99.90;;;;;;6160827;23;20048;-76
2022/07/23 23:34:13;;;;;;;8.70;5.25;;;16.10;99.90;;;;;;6185796;23;20372;-75
2022/07/23 23:36:38;;;;;;;7.70;5.50;;;16.00;99.90;;;;;;6160868;23;20045;-75
2022/07/23 23:39:04;;;;;;;10.80;5.65;;;15.90;99.90;;;;;;6186010;23;20013;-76
2022/07/23 23:41:30;;;;;;;10.27;5.38;;;15.90;99.90;;;;;;6161204;23;20016;-75
2022/07/23 23:43:55;;;;;;;8.20;5.20;;;16.00;99.90;;;;;;6185869;23;20016;-76
2022/07/23 23:46:21;;;;;;;9.43;5.43;;;15.90;99.90;;;;;;6185130;23;20021;-76
2022/07/23 23:48:47;;;;;;;6.53;5.38;;;15.90;99.90;;;;;;6185570;23;20017;-76
2022/07/23 23:51:13;;;;;;;11.07;5.72;;;15.80;99.90;;;;;;6160441;23;20067;-76
2022/07/23 23:53:38;;;;;;;6.97;5.53;;;15.80;99.90;;;;;;6185714;23;20093;-76
2022/07/23 23:56:04;;;;;;;12.80;5.68;;;15.80;99.90;;;;;;6187321;23;20013;-75
2022/07/23 23:58:30;;;;;;;12.20;5.55;;;15.80;99.90;;;;;;6159965;23;20028;-76
